Eureka, WI (54934)

9:28 AM CST on February 14, 2016 (GMT -0600)
Berlin, Wisconsin | | Change Station
CLOSE
Current Station
Personal Weather Station
Location: Berlin, WI
Elevation: 794 ft
Nearby Weather Stations
Active Advisory: Special Statement

Elev 794 ft 43.97 °N, 88.95 °W | Updated 13 minutes ago

Mostly Cloudy
Mostly Cloudy
14.7 °F
Feels Like 15 °F
N
0.0
Wind Variable Wind from South

Today
High -- | Low -- °F
--% Chance of Precip.
Yesterday
High -- | Low -- °F
Precip. -- in
Pressure 30.34 in
Visibility 10.0 miles
Clouds Clear
Windchill 15 °F
Dew Point 1 °F
Humidity 53%
Rainfall 0.00 in
Snow Depth Not available.
6:56 AM 5:23 PM
Waxing Crescent, 42% visible
METAR KOSH 141453Z 00000KT 10SM CLR M15/M21 A3024 RMK AO2 SLP274 T11501206 58033
Pressure 30.34 in
Visibility 10.0 miles
Clouds Clear
Windchill 15 °F
Dew Point 1 °F
Humidity 53%
Rainfall 0.00 in
Snow Depth Not available.
6:56 AM 5:23 PM
Waxing Crescent, 42% visible
METAR KOSH 141453Z 00000KT 10SM CLR M15/M21 A3024 RMK AO2 SLP274 T11501206 58033

10-Day Weather Forecast

Almanac

Astronomy

Feb. 14, 2016 Rise Set
Actual Time
Civil Twilight
Nautical Twilight
Astronomical Twilight
Moon
Length of Visible Light
Length of Day
Tomorrow will be .
, % of the Moon is Illuminated

Today's Extremes

State Highs State Lows

Community

WunderPhotos

Upload Photos

1,892,791 photos uploaded!

WunderBlog® & News

Nearby

Air Quality

  Air Quality AQ Index Pollutant
Not available.

Snow Depth

Station Depth Elevation

Earthquake Activity

City Distance Mag. Time & Date
Minimum magnitude displayed is 2.5.

Coastal Water Temperatures

Place Temperature

Stations

Nearby Weather Stations

Station Location Temp. Windchill Dew Point Humidity Wind Precip. Elev Updated Type
                   

Watches & Warnings

Special Statement
Issued: 4:18 AM CST Feb. 14, 2016 – National Weather Service

... Accumulating snow arriving this afternoon and tonight...

Light snow will develop across the region this afternoon and
early evening... then continue through the overnight hours.
Most places will receive 1 to 2 inches of snow... with local
higher amounts.

Snow covered roads and reduced visibilities will result in
locally hazardous travel conditions later today into tonight...
so those with travel plans should adjust them accordingly.



418 am CST sun Feb 14 2016

... Accumulating snow arriving this afternoon and tonight...

Light snow will develop across the region this afternoon and
early evening... then continue through the overnight hours.
Most places will receive 1 to 2 inches of snow... with local
higher amounts.

Snow covered roads and reduced visibilities will result in
locally hazardous travel conditions later today into tonight...
so those with travel plans should adjust them accordingly.